Westrac — WTH4325 — position and weather

sailwx.info

Track history (hours):
 
Tides and Currents Weather Stations Pressure Air Temp Water Temp Dewpoint Dewpoint Depression Visibility Wind Speed Wind Dir Waves Ship Positions

Westrac

Owner: WESTERN TOWBOAT CO, SEATTLE, WA. More information available from US FCC via Universal Licensing System and Coast Guard Vessel Documentation Center.

Last reported at 2015-May-03 08:33 UTC. Time now 2015-May-03 08:49 UTC.
Position N 47°34' W 122°21'.

Length 23 m; draft 5 m.

Type: Tug. MMSI: 366993010.

Date/timePositionNaut miles runAvg speedWind from/ knotsBaromVisibWave heightAir tempDewpointWater temp
2015-May-03 08:33N 47°34' W 122°21'0 0.0
2015-May-03 08:31N 47°34' W 122°21'0 0.0
2015-May-03 07:33N 47°34' W 122°21'0 0.0
2015-May-03 07:31N 47°34' W 122°21'0 0.0
2015-May-03 06:50N 47°34' W 122°21'0 0.0
2015-May-03 06:33N 47°34' W 122°21'0 0.0
2015-May-03 05:33N 47°34' W 122°21'0 0.1
2015-May-03 05:30N 47°34' W 122°21'0 0.0
2015-May-03 04:33N 47°34' W 122°21'0 0.0
2015-May-03 04:30N 47°34' W 122°21'0 0.0
2015-May-03 03:33N 47°34' W 122°21'0 0.0
2015-May-03 03:30N 47°34' W 122°21'0 0.0
2015-May-03 02:33N 47°34' W 122°21'0 0.0
2015-May-03 02:30N 47°34' W 122°21'0 0.0
2015-May-03 01:33N 47°34' W 122°21'0 0.0
2015-May-03 01:30N 47°34' W 122°21'0 0.0
2015-May-03 00:33N 47°34' W 122°21'0 0.0
2015-May-03 00:29N 47°34' W 122°21'0 0.0
2015-May-02 23:33N 47°34' W 122°21'0 0.0
2015-May-02 23:29N 47°34' W 122°21'0 0.0
2015-May-02 22:33N 47°34' W 122°21'0 0.0
2015-May-02 22:29N 47°34' W 122°21'0 0.0
2015-May-02 21:19N 47°34' W 122°21'0 0.0
2015-May-02 20:30N 47°34' W 122°21'0 0.1
2015-May-02 20:27N 47°34' W 122°21'2 1.8
2015-May-02 19:33N 47°36' W 122°22'0 3.4
2015-May-02 19:31N 47°36' W 122°22'1 1.1
2015-May-02 18:33N 47°35' W 122°22'0 4.6
2015-May-02 18:29N 47°34' W 122°21'3 2.7
2015-May-02 17:33N 47°32' W 122°19'0 0.0
2015-May-02 16:38N 47°32' W 122°19'0 0.0
2015-May-02 16:33N 47°32' W 122°19'0 0.0
2015-May-02 16:22N 47°32' W 122°19'2 2.5
2015-May-02 15:33N 47°34' W 122°21'2 3.6
2015-May-02 15:07N 47°35' W 122°21'1 2.3
2015-May-02 14:33N 47°34' W 122°21'0 0.0
2015-May-02 14:22N 47°34' W 122°21'0 0.0
2015-May-02 13:33N 47°34' W 122°21'0 0.2
2015-May-02 13:31N 47°34' W 122°21'0 0.0
2015-May-02 12:33N 47°34' W 122°21'0 0.0
2015-May-02 12:32N 47°34' W 122°21'0 0.0
2015-May-02 11:33N 47°34' W 122°21'0 0.0
2015-May-02 11:30N 47°34' W 122°21'0 0.0
2015-May-02 10:33N 47°34' W 122°21'0 0.0
2015-May-02 10:25N 47°34' W 122°21'0 0.0
2015-May-02 09:33N 47°34' W 122°21'0 0.0
2015-May-02 09:19N 47°34' W 122°21'0 0.0
2015-May-02 08:33N 47°34' W 122°21'0 0.0
2015-May-02 08:24N 47°34' W 122°21'0 0.0
2015-May-02 07:33N 47°34' W 122°21'0 0.0
2015-May-02 07:12N 47°34' W 122°21'0 0.0
2015-May-02 06:33N 47°34' W 122°21'0 0.0
2015-May-02 06:10N 47°34' W 122°21'0 0.0
2015-May-02 05:33N 47°34' W 122°21'0 0.0
2015-May-02 05:19N 47°34' W 122°21'0 0.0
2015-May-02 04:33N 47°34' W 122°21'0 0.0
2015-May-02 03:33N 47°34' W 122°21'0 0.1
2015-May-02 03:27N 47°34' W 122°21'1 0.6
2015-May-02 02:33N 47°34' W 122°21'1 0.7
2015-May-02 01:40N 47°33' W 122°20'0 0.4
2015-May-02 01:33N 47°33' W 122°20'0 0.9
2015-May-02 01:30N 47°33' W 122°20'1 0.8
2015-May-02 00:33N 47°34' W 122°21'0 4.9
2015-May-02 00:29N 47°33' W 122°21'1 0.9
2015-May-01 23:33N 47°33' W 122°20'0 0.0
2015-May-01 23:33N 47°33' W 122°20'3 2.7
2015-May-01 22:33N 47°35' W 122°21'0 0.3
2015-May-01 22:32N 47°35' W 122°21'3 3.2
2015-May-01 21:33N 47°32' W 122°20'0 1.6
2015-May-01 21:17N 47°32' W 122°19'0 0.1
2015-May-01 20:33N 47°32' W 122°19'0 6.2
2015-May-01 20:31N 47°32' W 122°20'1 1.2
2015-May-01 19:33N 47°33' W 122°21'1 1.5
2015-May-01 19:04N 47°33' W 122°20'1 1.6
2015-May-01 18:33N 47°33' W 122°21'0 0.6
2015-May-01 18:29N 47°33' W 122°21'2 2.3
2015-May-01 17:33N 47°35' W 122°22'0 0.0
2015-May-01 17:29N 47°35' W 122°22'1 1.2
2015-May-01 16:33N 47°34' W 122°21'0 0.1
2015-May-01 16:29N 47°34' W 122°21'1 0.8
2015-May-01 15:33N 47°34' W 122°21'0 0.2
2015-May-01 15:02N 47°34' W 122°21'0 0.0
2015-Apr-30 23:40N 47°34' W 122°21'1 7.0
2015-Apr-30 23:34N 47°33' W 122°21'0 3.1
2015-Apr-30 23:31N 47°33' W 122°21'3 3.3
2015-Apr-30 22:34N 47°36' W 122°23'0 5.8
2015-Apr-30 22:30N 47°36' W 122°24'6 6.0
2015-Apr-30 21:33N 47°34' W 122°32'3 3.7
2015-Apr-30 20:38N 47°34' W 122°37'0 6.2
2015-Apr-30 20:34N 47°33' W 122°37'1 6.2
2015-Apr-30 20:28N 47°33' W 122°38'0 0.3
2015-Apr-30 19:33N 47°33' W 122°38'410.2
2015-Apr-30 19:09N 47°36' W 122°33'3 4.7
2015-Apr-30 18:34N 47°34' W 122°31'0 0.0
2015-Apr-30 18:33N 47°34' W 122°31'3 3.3
2015-Apr-30 17:34N 47°35' W 122°35'0 4.7
2015-Apr-30 17:33N 47°35' W 122°35'3 3.2
2015-Apr-30 16:34N 47°33' W 122°39'0 0.0
2015-Apr-30 15:33N 47°33' W 122°39'0 0.0
2015-Apr-30 15:06N 47°33' W 122°39'3 6.2
2015-Apr-30 14:34N 47°35' W 122°35'0 7.5
2015-Apr-30 14:31N 47°35' W 122°35'7 7.0
2015-Apr-30 13:32N 47°37' W 122°25'1 9.7
2015-Apr-30 13:24N 47°37' W 122°23'0 0.1
2015-Apr-30 12:33N 47°38' W 122°23'0 0.0
2015-Apr-30 12:33N 47°38' W 122°23'3 3.2
2015-Apr-30 11:33N 47°34' W 122°21'0 7.8
2015-Apr-30 11:33N 47°34' W 122°21'1 0.5
2015-Apr-30 10:33N 47°34' W 122°21'0 0.0
2015-Apr-30 10:33N 47°34' W 122°21'0 0.0
2015-Apr-30 09:33N 47°34' W 122°21'0 0.0
2015-Apr-30 09:32N 47°34' W 122°21'0 0.0
2015-Apr-30 08:33N 47°34' W 122°21'0 0.0
2015-Apr-30 08:32N 47°34' W 122°21'0 0.0
2015-Apr-30 07:33N 47°34' W 122°21'0 0.0
2015-Apr-30 07:32N 47°34' W 122°21'0 0.0
2015-Apr-30 06:33N 47°34' W 122°21'0 0.2
2015-Apr-30 06:31N 47°34' W 122°21'0 0.0
2015-Apr-30 06:06N 47°34' W 122°21'0 0.0
2015-Apr-30 05:33N 47°34' W 122°21'0 0.0
2015-Apr-30 04:33N 47°34' W 122°21'0 0.0
2015-Apr-30 04:31N 47°34' W 122°21'0 0.0
2015-Apr-30 03:33N 47°34' W 122°21'0 0.0
2015-Apr-30 03:30N 47°34' W 122°21'2 2.1
2015-Apr-30 02:34N 47°36' W 122°22'110.3
2015-Apr-30 02:25N 47°37' W 122°23'2 1.9
2015-Apr-30 01:33N 47°38' W 122°25'0 8.1
2015-Apr-30 01:30N 47°38' W 122°25'1 1.3
2015-Apr-30 00:33N 47°37' W 122°23'3 3.2
2015-Apr-29 23:32N 47°34' W 122°21'0 0.0
2015-Apr-29 23:01N 47°34' W 122°21'0 0.0
2015-Apr-29 22:33N 47°34' W 122°21'0 0.0
2015-Apr-29 22:31N 47°34' W 122°21'0 0.0
2015-Apr-29 21:33N 47°34' W 122°21'0 0.0
2015-Apr-29 21:31N 47°34' W 122°21'0 0.0
2015-Apr-29 20:33N 47°34' W 122°21'0 0.0
2015-Apr-29 20:31N 47°34' W 122°21'0 0.0
2015-Apr-29 19:33N 47°34' W 122°21'0 0.1
2015-Apr-29 19:30N 47°34' W 122°21'1 0.9
2015-Apr-29 18:33N 47°33' W 122°21'0 0.0
2015-Apr-29 18:30N 47°33' W 122°21'1 0.7
2015-Apr-29 17:31N 47°33' W 122°20'1 4.6
2015-Apr-29 17:23N 47°33' W 122°21'2 2.8
2015-Apr-29 16:34N 47°35' W 122°22'0 3.4
2015-Apr-29 16:33N 47°35' W 122°22'1 1.5
2015-Apr-29 15:33N 47°34' W 122°21'0 0.0
2015-Apr-29 15:33N 47°34' W 122°21'1 0.7
2015-Apr-29 14:33N 47°33' W 122°21'1 0.7
2015-Apr-29 13:33N 47°34' W 122°21'0 0.0
2015-Apr-29 13:33N 47°34' W 122°21'0 0.0
2015-Apr-29 12:34N 47°34' W 122°21'0 0.5
2015-Apr-29 12:33N 47°34' W 122°21'0 0.0
2015-Apr-29 11:33N 47°34' W 122°21'0 0.4
2015-Apr-29 11:32N 47°34' W 122°21'0 0.0
2015-Apr-29 10:33N 47°34' W 122°21'0 0.0
2015-Apr-29 10:32N 47°34' W 122°21'0 0.0
2015-Apr-29 09:33N 47°34' W 122°21'0 0.1
2015-Apr-29 09:26N 47°34' W 122°21'0 0.0
2015-Apr-29 08:34N 47°34' W 122°21'0 0.0
2015-Apr-29 08:32N 47°34' W 122°21'0 0.0
2015-Apr-29 07:33N 47°34' W 122°21'0 0.2
2015-Apr-29 07:32N 47°34' W 122°21'0 0.0
2015-Apr-29 06:33N 47°34' W 122°21'0 0.0
2015-Apr-29 06:21N 47°34' W 122°21'0 0.0
2015-Apr-29 06:11N 47°34' W 122°21'0 0.0
2015-Apr-29 05:34N 47°34' W 122°21'0 0.0
2015-Apr-29 04:33N 47°34' W 122°21'0 0.0
2015-Apr-29 04:31N 47°34' W 122°21'0 0.0
2015-Apr-29 03:34N 47°34' W 122°21'0 0.1
2015-Apr-29 03:30N 47°34' W 122°21'0 0.0
2015-Apr-29 02:33N 47°34' W 122°21'0 0.1
2015-Apr-29 02:30N 47°34' W 122°21'0 0.0
2015-Apr-29 01:33N 47°34' W 122°21'0 0.0
2015-Apr-29 01:30N 47°34' W 122°21'2 1.8
2015-Apr-29 00:33N 47°36' W 122°22'0 0.8
2015-Apr-29 00:30N 47°36' W 122°22'0 0.0
2015-Apr-28 23:33N 47°36' W 122°22'0 0.1
2015-Apr-28 23:30N 47°36' W 122°22'1 0.7
2015-Apr-28 22:33N 47°35' W 122°21'0 1.9
2015-Apr-28 22:28N 47°35' W 122°21'2 0.9
2015-Apr-28 19:53N 47°33' W 122°20'0 1.0
2015-Apr-28 19:33N 47°33' W 122°21'0 4.1
2015-Apr-28 19:33N 47°33' W 122°21'2 1.9
2015-Apr-28 18:33N 47°35' W 122°21'0 5.2
2015-Apr-28 18:32N 47°35' W 122°21'1 1.2
2015-Apr-28 17:33N 47°34' W 122°21'0 0.0
2015-Apr-28 17:31N 47°34' W 122°21'0 0.0
2015-Apr-28 16:32N 47°34' W 122°21'0 0.1
2015-Apr-28 16:26N 47°34' W 122°21'0 0.0
2015-Apr-28 15:33N 47°34' W 122°21'0 0.0
2015-Apr-28 15:30N 47°34' W 122°21'1 1.5
2015-Apr-28 14:33N 47°33' W 122°20'0 0.1
2015-Apr-28 14:29N 47°33' W 122°20'4 3.9
2015-Apr-28 13:33N 47°36' W 122°22'0 3.2
2015-Apr-28 13:24N 47°37' W 122°23'3 3.2
2015-Apr-28 12:33N 47°34' W 122°21'0 0.0
2015-Apr-28 12:29N 47°34' W 122°21'0 0.0
2015-Apr-28 11:33N 47°34' W 122°21'0 0.0
2015-Apr-28 11:28N 47°34' W 122°21'0 0.0
2015-Apr-28 10:33N 47°34' W 122°21'0 0.0
2015-Apr-28 10:33N 47°34' W 122°21'0 0.0
2015-Apr-28 09:33N 47°34' W 122°21'0 0.0
2015-Apr-28 09:33N 47°34' W 122°21'0 0.0
2015-Apr-28 08:33N 47°34' W 122°21'0 0.1
2015-Apr-28 08:26N 47°34' W 122°21'0 0.0
2015-Apr-28 07:33N 47°34' W 122°21'0 0.0
2015-Apr-28 07:31N 47°34' W 122°21'0 0.0
2015-Apr-28 06:33N 47°34' W 122°21'0 0.2
2015-Apr-28 06:31N 47°34' W 122°21'0 0.0
2015-Apr-28 06:11N 47°34' W 122°21'0 0.0
2015-Apr-28 05:33N 47°34' W 122°21'0 0.0
2015-Apr-28 04:33N 47°34' W 122°21'0 0.0
2015-Apr-28 04:10N 47°34' W 122°21'0 0.0
2015-Apr-28 03:33N 47°34' W 122°21'0 0.0
2015-Apr-28 03:05N 47°34' W 122°21'0 0.0
2015-Apr-28 02:33N 47°34' W 122°21'0 0.0
2015-Apr-28 02:30N 47°34' W 122°21'0 0.0
2015-Apr-28 01:33N 47°34' W 122°21'0 0.1
2015-Apr-28 01:30N 47°34' W 122°21'0 0.0
2015-Apr-28 00:33N 47°34' W 122°21'0 0.1
2015-Apr-28 00:29N 47°34' W 122°21'1 1.1
2015-Apr-27 23:33N 47°33' W 122°20'0 0.8
2015-Apr-27 23:28N 47°33' W 122°20'1 1.4
2015-Apr-27 22:33N 47°34' W 122°21'0 9.3
2015-Apr-27 22:33N 47°34' W 122°21'1 0.9
2015-Apr-27 21:33N 47°33' W 122°21'0 0.0
2015-Apr-27 21:33N 47°33' W 122°21'1 0.7
2015-Apr-27 20:33N 47°34' W 122°21'0 0.0
2015-Apr-27 20:33N 47°34' W 122°21'1 1.3
2015-Apr-27 19:33N 47°35' W 122°21'0 0.0
2015-Apr-27 19:33N 47°35' W 122°21'1 1.2
2015-Apr-27 18:32N 47°34' W 122°21'0 0.0
2015-Apr-27 18:32N 47°34' W 122°21'0 0.0
2015-Apr-27 17:33N 47°34' W 122°21'0 0.0
2015-Apr-27 17:32N 47°34' W 122°21'0 0.0
2015-Apr-27 16:33N 47°34' W 122°21'0 0.0
2015-Apr-27 16:27N 47°34' W 122°21'0 0.0
2015-Apr-27 15:33N 47°34' W 122°21'0 0.0
2015-Apr-27 15:31N 47°34' W 122°21'0 0.0
2015-Apr-27 14:33N 47°34' W 122°21'0 0.2
2015-Apr-27 14:32N 47°34' W 122°21'1 1.1
2015-Apr-27 13:33N 47°33' W 122°21'0 1.1
2015-Apr-27 13:31N 47°33' W 122°20'1 0.1
2015-Apr-27 03:22N 47°34' W 122°21'0 5.0
2015-Apr-27 03:22N 47°34' W 122°21'2 2.4
2015-Apr-27 02:33N 47°36' W 122°22'0 1.8
2015-Apr-27 02:32N 47°36' W 122°22'2 1.8
2015-Apr-27 01:33N 47°34' W 122°21'0 0.2
2015-Apr-27 01:32N 47°34' W 122°21'0 0.0
2015-Apr-27 00:33N 47°34' W 122°21'0 0.0
2015-Apr-27 00:31N 47°34' W 122°21'0 0.0
2015-Apr-26 23:33N 47°34' W 122°21'0 0.0
2015-Apr-26 23:31N 47°34' W 122°21'1 0.8
2015-Apr-26 22:33N 47°35' W 122°22'0 6.1
2015-Apr-26 22:31N 47°35' W 122°22'0 0.0
2015-Apr-26 14:39N 47°35' W 122°22'0 4.3
2015-Apr-26 14:34N 47°35' W 122°21'0 0.6
2015-Apr-26 14:33N 47°35' W 122°21'1 0.1
2015-Apr-25 19:24N 47°34' W 122°21'2 2.4
2015-Apr-25 18:34N 47°32' W 122°20'1 0.6
2015-Apr-25 17:33N 47°33' W 122°20'1 0.1
2015-Apr-25 07:03N 47°34' W 122°21'1 2.4
2015-Apr-25 06:33N 47°35' W 122°22'0 0.2
2015-Apr-25 05:34N 47°35' W 122°22'1 1.0
2015-Apr-25 04:33N 47°34' W 122°21'0 0.0
2015-Apr-25 03:33N 47°34' W 122°21'0 0.3
2015-Apr-25 02:32N 47°34' W 122°21'1 0.8
2015-Apr-25 01:33N 47°33' W 122°20'0 0.2
2015-Apr-25 00:33N 47°33' W 122°21'1 0.8
2015-Apr-24 23:33N 47°34' W 122°21'1 1.1
2015-Apr-24 22:33N 47°33' W 122°20'4 3.8
2015-Apr-24 21:33N 47°36' W 122°24'8 7.7
2015-Apr-24 20:33N 47°28' W 122°24'7 7.1
2015-Apr-24 19:33N 47°21' W 122°24'3 3.1
2015-Apr-24 18:34N 47°19' W 122°27'9 8.5
2015-Apr-24 17:33N 47°27' W 122°24'9 8.6
2015-Apr-24 16:33N 47°36' W 122°23'2 0.1
2015-Apr-23 21:26N 47°34' W 122°21'1 0.9
2015-Apr-23 20:33N 47°35' W 122°22'2 2.1
2015-Apr-23 19:33N 47°33' W 122°20'2 1.6
2015-Apr-23 18:33N 47°34' W 122°21'  
Track history (hours):
 
Tides and Currents Weather Stations Pressure Air Temp Water Temp Dewpoint Dewpoint Depression Visibility Wind Speed Wind Dir Waves Ship Positions

Westrac

Owner: WESTERN TOWBOAT CO, SEATTLE, WA. More information available from US FCC via Universal Licensing System and Coast Guard Vessel Documentation Center.

Last reported at 2015-May-03 08:33 UTC. Time now 2015-May-03 08:49 UTC.
Position N 47°34' W 122°21'.

Length 23 m; draft 5 m.

Type: Tug. MMSI: 366993010.

Date/timePositionNaut miles runAvg speedWind from/ knotsBaromVisibWave heightAir tempDewpointWater temp
2015-May-03 08:33N 47°34' W 122°21'0 0.0
2015-May-03 08:31N 47°34' W 122°21'0 0.0
2015-May-03 07:33N 47°34' W 122°21'0 0.0
2015-May-03 07:31N 47°34' W 122°21'0 0.0
2015-May-03 06:50N 47°34' W 122°21'0 0.0
2015-May-03 06:33N 47°34' W 122°21'0 0.0
2015-May-03 05:33N 47°34' W 122°21'0 0.1
2015-May-03 05:30N 47°34' W 122°21'0 0.0
2015-May-03 04:33N 47°34' W 122°21'0 0.0
2015-May-03 04:30N 47°34' W 122°21'0 0.0
2015-May-03 03:33N 47°34' W 122°21'0 0.0
2015-May-03 03:30N 47°34' W 122°21'0 0.0
2015-May-03 02:33N 47°34' W 122°21'0 0.0
2015-May-03 02:30N 47°34' W 122°21'0 0.0
2015-May-03 01:33N 47°34' W 122°21'0 0.0
2015-May-03 01:30N 47°34' W 122°21'0 0.0
2015-May-03 00:33N 47°34' W 122°21'0 0.0
2015-May-03 00:29N 47°34' W 122°21'0 0.0
2015-May-02 23:33N 47°34' W 122°21'0 0.0
2015-May-02 23:29N 47°34' W 122°21'0 0.0
2015-May-02 22:33N 47°34' W 122°21'0 0.0
2015-May-02 22:29N 47°34' W 122°21'0 0.0
2015-May-02 21:19N 47°34' W 122°21'0 0.0
2015-May-02 20:30N 47°34' W 122°21'0 0.1
2015-May-02 20:27N 47°34' W 122°21'2 1.8
2015-May-02 19:33N 47°36' W 122°22'0 3.4
2015-May-02 19:31N 47°36' W 122°22'1 1.1
2015-May-02 18:33N 47°35' W 122°22'0 4.6
2015-May-02 18:29N 47°34' W 122°21'3 2.7
2015-May-02 17:33N 47°32' W 122°19'0 0.0
2015-May-02 16:38N 47°32' W 122°19'0 0.0
2015-May-02 16:33N 47°32' W 122°19'0 0.0
2015-May-02 16:22N 47°32' W 122°19'2 2.5
2015-May-02 15:33N 47°34' W 122°21'2 3.6
2015-May-02 15:07N 47°35' W 122°21'1 2.3
2015-May-02 14:33N 47°34' W 122°21'0 0.0
2015-May-02 14:22N 47°34' W 122°21'0 0.0
2015-May-02 13:33N 47°34' W 122°21'0 0.2
2015-May-02 13:31N 47°34' W 122°21'0 0.0
2015-May-02 12:33N 47°34' W 122°21'0 0.0
2015-May-02 12:32N 47°34' W 122°21'0 0.0
2015-May-02 11:33N 47°34' W 122°21'0 0.0
2015-May-02 11:30N 47°34' W 122°21'0 0.0
2015-May-02 10:33N 47°34' W 122°21'0 0.0
2015-May-02 10:25N 47°34' W 122°21'0 0.0
2015-May-02 09:33N 47°34' W 122°21'0 0.0
2015-May-02 09:19N 47°34' W 122°21'0 0.0
2015-May-02 08:33N 47°34' W 122°21'0 0.0
2015-May-02 08:24N 47°34' W 122°21'0 0.0
2015-May-02 07:33N 47°34' W 122°21'0 0.0
2015-May-02 07:12N 47°34' W 122°21'0 0.0
2015-May-02 06:33N 47°34' W 122°21'0 0.0
2015-May-02 06:10N 47°34' W 122°21'0 0.0
2015-May-02 05:33N 47°34' W 122°21'0 0.0
2015-May-02 05:19N 47°34' W 122°21'0 0.0
2015-May-02 04:33N 47°34' W 122°21'0 0.0
2015-May-02 03:33N 47°34' W 122°21'0 0.1
2015-May-02 03:27N 47°34' W 122°21'1 0.6
2015-May-02 02:33N 47°34' W 122°21'1 0.7
2015-May-02 01:40N 47°33' W 122°20'0 0.4
2015-May-02 01:33N 47°33' W 122°20'0 0.9
2015-May-02 01:30N 47°33' W 122°20'1 0.8
2015-May-02 00:33N 47°34' W 122°21'0 4.9
2015-May-02 00:29N 47°33' W 122°21'1 0.9
2015-May-01 23:33N 47°33' W 122°20'0 0.0
2015-May-01 23:33N 47°33' W 122°20'3 2.7
2015-May-01 22:33N 47°35' W 122°21'0 0.3
2015-May-01 22:32N 47°35' W 122°21'3 3.2
2015-May-01 21:33N 47°32' W 122°20'0 1.6
2015-May-01 21:17N 47°32' W 122°19'0 0.1
2015-May-01 20:33N 47°32' W 122°19'0 6.2
2015-May-01 20:31N 47°32' W 122°20'1 1.2
2015-May-01 19:33N 47°33' W 122°21'1 1.5
2015-May-01 19:04N 47°33' W 122°20'1 1.6
2015-May-01 18:33N 47°33' W 122°21'0 0.6
2015-May-01 18:29N 47°33' W 122°21'2 2.3
2015-May-01 17:33N 47°35' W 122°22'0 0.0
2015-May-01 17:29N 47°35' W 122°22'1 1.2
2015-May-01 16:33N 47°34' W 122°21'0 0.1
2015-May-01 16:29N 47°34' W 122°21'1 0.8
2015-May-01 15:33N 47°34' W 122°21'0 0.2
2015-May-01 15:02N 47°34' W 122°21'0 0.0
2015-Apr-30 23:40N 47°34' W 122°21'1 7.0
2015-Apr-30 23:34N 47°33' W 122°21'0 3.1
2015-Apr-30 23:31N 47°33' W 122°21'3 3.3
2015-Apr-30 22:34N 47°36' W 122°23'0 5.8
2015-Apr-30 22:30N 47°36' W 122°24'6 6.0
2015-Apr-30 21:33N 47°34' W 122°32'3 3.7
2015-Apr-30 20:38N 47°34' W 122°37'0 6.2
2015-Apr-30 20:34N 47°33' W 122°37'1 6.2
2015-Apr-30 20:28N 47°33' W 122°38'0 0.3
2015-Apr-30 19:33N 47°33' W 122°38'410.2
2015-Apr-30 19:09N 47°36' W 122°33'3 4.7
2015-Apr-30 18:34N 47°34' W 122°31'0 0.0
2015-Apr-30 18:33N 47°34' W 122°31'3 3.3
2015-Apr-30 17:34N 47°35' W 122°35'0 4.7
2015-Apr-30 17:33N 47°35' W 122°35'3 3.2
2015-Apr-30 16:34N 47°33' W 122°39'0 0.0
2015-Apr-30 15:33N 47°33' W 122°39'0 0.0
2015-Apr-30 15:06N 47°33' W 122°39'3 6.2
2015-Apr-30 14:34N 47°35' W 122°35'0 7.5
2015-Apr-30 14:31N 47°35' W 122°35'7 7.0
2015-Apr-30 13:32N 47°37' W 122°25'1 9.7
2015-Apr-30 13:24N 47°37' W 122°23'0 0.1
2015-Apr-30 12:33N 47°38' W 122°23'0 0.0
2015-Apr-30 12:33N 47°38' W 122°23'3 3.2
2015-Apr-30 11:33N 47°34' W 122°21'0 7.8
2015-Apr-30 11:33N 47°34' W 122°21'1 0.5
2015-Apr-30 10:33N 47°34' W 122°21'0 0.0
2015-Apr-30 10:33N 47°34' W 122°21'0 0.0
2015-Apr-30 09:33N 47°34' W 122°21'0 0.0
2015-Apr-30 09:32N 47°34' W 122°21'0 0.0
2015-Apr-30 08:33N 47°34' W 122°21'0 0.0
2015-Apr-30 08:32N 47°34' W 122°21'0 0.0
2015-Apr-30 07:33N 47°34' W 122°21'0 0.0
2015-Apr-30 07:32N 47°34' W 122°21'0 0.0
2015-Apr-30 06:33N 47°34' W 122°21'0 0.2
2015-Apr-30 06:31N 47°34' W 122°21'0 0.0
2015-Apr-30 06:06N 47°34' W 122°21'0 0.0
2015-Apr-30 05:33N 47°34' W 122°21'0 0.0
2015-Apr-30 04:33N 47°34' W 122°21'0 0.0
2015-Apr-30 04:31N 47°34' W 122°21'0 0.0
2015-Apr-30 03:33N 47°34' W 122°21'0 0.0
2015-Apr-30 03:30N 47°34' W 122°21'2 2.1
2015-Apr-30 02:34N 47°36' W 122°22'110.3
2015-Apr-30 02:25N 47°37' W 122°23'2 1.9
2015-Apr-30 01:33N 47°38' W 122°25'0 8.1
2015-Apr-30 01:30N 47°38' W 122°25'1 1.3
2015-Apr-30 00:33N 47°37' W 122°23'3 3.2
2015-Apr-29 23:32N 47°34' W 122°21'0 0.0
2015-Apr-29 23:01N 47°34' W 122°21'0 0.0
2015-Apr-29 22:33N 47°34' W 122°21'0 0.0
2015-Apr-29 22:31N 47°34' W 122°21'0 0.0
2015-Apr-29 21:33N 47°34' W 122°21'0 0.0
2015-Apr-29 21:31N 47°34' W 122°21'0 0.0
2015-Apr-29 20:33N 47°34' W 122°21'0 0.0
2015-Apr-29 20:31N 47°34' W 122°21'0 0.0
2015-Apr-29 19:33N 47°34' W 122°21'0 0.1
2015-Apr-29 19:30N 47°34' W 122°21'1 0.9
2015-Apr-29 18:33N 47°33' W 122°21'0 0.0
2015-Apr-29 18:30N 47°33' W 122°21'1 0.7
2015-Apr-29 17:31N 47°33' W 122°20'1 4.6
2015-Apr-29 17:23N 47°33' W 122°21'2 2.8
2015-Apr-29 16:34N 47°35' W 122°22'0 3.4
2015-Apr-29 16:33N 47°35' W 122°22'1 1.5
2015-Apr-29 15:33N 47°34' W 122°21'0 0.0
2015-Apr-29 15:33N 47°34' W 122°21'1 0.7
2015-Apr-29 14:33N 47°33' W 122°21'1 0.7
2015-Apr-29 13:33N 47°34' W 122°21'0 0.0
2015-Apr-29 13:33N 47°34' W 122°21'0 0.0
2015-Apr-29 12:34N 47°34' W 122°21'0 0.5
2015-Apr-29 12:33N 47°34' W 122°21'0 0.0
2015-Apr-29 11:33N 47°34' W 122°21'0 0.4
2015-Apr-29 11:32N 47°34' W 122°21'0 0.0
2015-Apr-29 10:33N 47°34' W 122°21'0 0.0
2015-Apr-29 10:32N 47°34' W 122°21'0 0.0
2015-Apr-29 09:33N 47°34' W 122°21'0 0.1
2015-Apr-29 09:26N 47°34' W 122°21'0 0.0
2015-Apr-29 08:34N 47°34' W 122°21'0 0.0
2015-Apr-29 08:32N 47°34' W 122°21'0 0.0
2015-Apr-29 07:33N 47°34' W 122°21'0 0.2
2015-Apr-29 07:32N 47°34' W 122°21'0 0.0
2015-Apr-29 06:33N 47°34' W 122°21'0 0.0
2015-Apr-29 06:21N 47°34' W 122°21'0 0.0
2015-Apr-29 06:11N 47°34' W 122°21'0 0.0
2015-Apr-29 05:34N 47°34' W 122°21'0 0.0
2015-Apr-29 04:33N 47°34' W 122°21'0 0.0
2015-Apr-29 04:31N 47°34' W 122°21'0 0.0
2015-Apr-29 03:34N 47°34' W 122°21'0 0.1
2015-Apr-29 03:30N 47°34' W 122°21'0 0.0
2015-Apr-29 02:33N 47°34' W 122°21'0 0.1
2015-Apr-29 02:30N 47°34' W 122°21'0 0.0
2015-Apr-29 01:33N 47°34' W 122°21'0 0.0
2015-Apr-29 01:30N 47°34' W 122°21'2 1.8
2015-Apr-29 00:33N 47°36' W 122°22'0 0.8
2015-Apr-29 00:30N 47°36' W 122°22'0 0.0
2015-Apr-28 23:33N 47°36' W 122°22'0 0.1
2015-Apr-28 23:30N 47°36' W 122°22'1 0.7
2015-Apr-28 22:33N 47°35' W 122°21'0 1.9
2015-Apr-28 22:28N 47°35' W 122°21'2 0.9
2015-Apr-28 19:53N 47°33' W 122°20'0 1.0
2015-Apr-28 19:33N 47°33' W 122°21'0 4.1
2015-Apr-28 19:33N 47°33' W 122°21'2 1.9
2015-Apr-28 18:33N 47°35' W 122°21'0 5.2
2015-Apr-28 18:32N 47°35' W 122°21'1 1.2
2015-Apr-28 17:33N 47°34' W 122°21'0 0.0
2015-Apr-28 17:31N 47°34' W 122°21'0 0.0
2015-Apr-28 16:32N 47°34' W 122°21'0 0.1
2015-Apr-28 16:26N 47°34' W 122°21'0 0.0
2015-Apr-28 15:33N 47°34' W 122°21'0 0.0
2015-Apr-28 15:30N 47°34' W 122°21'1 1.5
2015-Apr-28 14:33N 47°33' W 122°20'0 0.1
2015-Apr-28 14:29N 47°33' W 122°20'4 3.9
2015-Apr-28 13:33N 47°36' W 122°22'0 3.2
2015-Apr-28 13:24N 47°37' W 122°23'3 3.2
2015-Apr-28 12:33N 47°34' W 122°21'0 0.0
2015-Apr-28 12:29N 47°34' W 122°21'0 0.0
2015-Apr-28 11:33N 47°34' W 122°21'0 0.0
2015-Apr-28 11:28N 47°34' W 122°21'0 0.0
2015-Apr-28 10:33N 47°34' W 122°21'0 0.0
2015-Apr-28 10:33N 47°34' W 122°21'0 0.0
2015-Apr-28 09:33N 47°34' W 122°21'0 0.0
2015-Apr-28 09:33N 47°34' W 122°21'0 0.0
2015-Apr-28 08:33N 47°34' W 122°21'0 0.1
2015-Apr-28 08:26N 47°34' W 122°21'0 0.0
2015-Apr-28 07:33N 47°34' W 122°21'0 0.0
2015-Apr-28 07:31N 47°34' W 122°21'0 0.0
2015-Apr-28 06:33N 47°34' W 122°21'0 0.2
2015-Apr-28 06:31N 47°34' W 122°21'0 0.0
2015-Apr-28 06:11N 47°34' W 122°21'0 0.0
2015-Apr-28 05:33N 47°34' W 122°21'0 0.0
2015-Apr-28 04:33N 47°34' W 122°21'0 0.0
2015-Apr-28 04:10N 47°34' W 122°21'0 0.0
2015-Apr-28 03:33N 47°34' W 122°21'0 0.0
2015-Apr-28 03:05N 47°34' W 122°21'0 0.0
2015-Apr-28 02:33N 47°34' W 122°21'0 0.0
2015-Apr-28 02:30N 47°34' W 122°21'0 0.0
2015-Apr-28 01:33N 47°34' W 122°21'0 0.1
2015-Apr-28 01:30N 47°34' W 122°21'0 0.0
2015-Apr-28 00:33N 47°34' W 122°21'0 0.1
2015-Apr-28 00:29N 47°34' W 122°21'1 1.1
2015-Apr-27 23:33N 47°33' W 122°20'0 0.8
2015-Apr-27 23:28N 47°33' W 122°20'1 1.4
2015-Apr-27 22:33N 47°34' W 122°21'0 9.3
2015-Apr-27 22:33N 47°34' W 122°21'1 0.9
2015-Apr-27 21:33N 47°33' W 122°21'0 0.0
2015-Apr-27 21:33N 47°33' W 122°21'1 0.7
2015-Apr-27 20:33N 47°34' W 122°21'0 0.0
2015-Apr-27 20:33N 47°34' W 122°21'1 1.3
2015-Apr-27 19:33N 47°35' W 122°21'0 0.0
2015-Apr-27 19:33N 47°35' W 122°21'1 1.2
2015-Apr-27 18:32N 47°34' W 122°21'0 0.0
2015-Apr-27 18:32N 47°34' W 122°21'0 0.0
2015-Apr-27 17:33N 47°34' W 122°21'0 0.0
2015-Apr-27 17:32N 47°34' W 122°21'0 0.0
2015-Apr-27 16:33N 47°34' W 122°21'0 0.0
2015-Apr-27 16:27N 47°34' W 122°21'0 0.0
2015-Apr-27 15:33N 47°34' W 122°21'0 0.0
2015-Apr-27 15:31N 47°34' W 122°21'0 0.0
2015-Apr-27 14:33N 47°34' W 122°21'0 0.2
2015-Apr-27 14:32N 47°34' W 122°21'1 1.1
2015-Apr-27 13:33N 47°33' W 122°21'0 1.1
2015-Apr-27 13:31N 47°33' W 122°20'1 0.1
2015-Apr-27 03:22N 47°34' W 122°21'0 5.0
2015-Apr-27 03:22N 47°34' W 122°21'2 2.4
2015-Apr-27 02:33N 47°36' W 122°22'0 1.8
2015-Apr-27 02:32N 47°36' W 122°22'2 1.8
2015-Apr-27 01:33N 47°34' W 122°21'0 0.2
2015-Apr-27 01:32N 47°34' W 122°21'0 0.0
2015-Apr-27 00:33N 47°34' W 122°21'0 0.0
2015-Apr-27 00:31N 47°34' W 122°21'0 0.0
2015-Apr-26 23:33N 47°34' W 122°21'0 0.0
2015-Apr-26 23:31N 47°34' W 122°21'1 0.8
2015-Apr-26 22:33N 47°35' W 122°22'0 6.1
2015-Apr-26 22:31N 47°35' W 122°22'0 0.0
2015-Apr-26 14:39N 47°35' W 122°22'0 4.3
2015-Apr-26 14:34N 47°35' W 122°21'0 0.6
2015-Apr-26 14:33N 47°35' W 122°21'1 0.1
2015-Apr-25 19:24N 47°34' W 122°21'2 2.4
2015-Apr-25 18:34N 47°32' W 122°20'1 0.6
2015-Apr-25 17:33N 47°33' W 122°20'1 0.1
2015-Apr-25 07:03N 47°34' W 122°21'1 2.4
2015-Apr-25 06:33N 47°35' W 122°22'0 0.2
2015-Apr-25 05:34N 47°35' W 122°22'1 1.0
2015-Apr-25 04:33N 47°34' W 122°21'0 0.0
2015-Apr-25 03:33N 47°34' W 122°21'0 0.3
2015-Apr-25 02:32N 47°34' W 122°21'1 0.8
2015-Apr-25 01:33N 47°33' W 122°20'0 0.2
2015-Apr-25 00:33N 47°33' W 122°21'1 0.8
2015-Apr-24 23:33N 47°34' W 122°21'1 1.1
2015-Apr-24 22:33N 47°33' W 122°20'4 3.8
2015-Apr-24 21:33N 47°36' W 122°24'8 7.7
2015-Apr-24 20:33N 47°28' W 122°24'7 7.1
2015-Apr-24 19:33N 47°21' W 122°24'3 3.1
2015-Apr-24 18:34N 47°19' W 122°27'9 8.5
2015-Apr-24 17:33N 47°27' W 122°24'9 8.6
2015-Apr-24 16:33N 47°36' W 122°23'2 0.1
2015-Apr-23 21:26N 47°34' W 122°21'1 0.9
2015-Apr-23 20:33N 47°35' W 122°22'2 2.1
2015-Apr-23 19:33N 47°33' W 122°20'2 1.6
2015-Apr-23 18:33N 47°34' W 122°21'  

Dump ship's entire track history